Accueil
METAR-TAF:

METAR-TAF

Aéroports :

Aéroport international de Luang Prabang

Luang Prabang, Laos

latitude: 19-53N, longitude: 102-08E, altitude: 305 m

Observation

Le bulletin a été fait il y a 7 heures et 32 minutes, à 12:00 UTC
Vent 6 kt de sud
Température 35°C
Humidité 37%
Pression 1000 hPa
Visibilité 10 km ou plus
Quelques nuages à une hauteur de 2000 ft
Quelques nuages à une hauteur de 6000 ft

METAR: VLLB 201200Z 18006KT 9999 FEW020 FEW060 35/18 Q1000 NOSIG

Heure: 02:32 (19:32 UTC)

Prévision

Le bulletin a été fait il y a 2 heures et 32 minutes, à 17:00 UTC
Prévision valable du 20 à 18 UTC au 21 à 18 UTC
Vent 6 kt de sud
Visibilité: 6000 m
Quelques nuages à une hauteur de 2000 ft
Nuages épars à une hauteur de 6000 ft

TAF: VLLB 201700Z 2018/2118 18006KT 6000 FEW020 SCT060

Observations et prévisions météorologiques de plus de 4000 aéroports (messages METAR et TAF).

Les stations disponibles sont représentées par des disques jaunes et rouges sur la carte.

Passer la souris dessus pour voir le nom de la station.

Cliquer dessus pour voir les observations et prévisions météorologiques.

Pour changer de carte: cliquez sur les boutons verts avec une croix noire pour zoomer, sur le bouton vert avec un tiret pour effectuer un zoom arrière, ou sur les flèches vertes pour les cartes adjacentes.


METAR-TAF: